createdAt,value
2019-01-17T08:25:09.514Z,70.30
2019-01-17T08:52:41.644Z,99.90
2019-01-17T08:55:10.533Z,4.30
2019-01-17T08:57:39.424Z,1.00
2019-01-17T09:00:20.662Z,1.00
2019-01-17T09:02:49.600Z,1.00
2019-01-17T09:05:18.488Z,1.00
2019-01-17T09:07:47.362Z,1.00
2019-01-17T09:10:22.414Z,1.00
2019-01-17T09:12:52.114Z,1.00
2019-01-17T09:15:23.984Z,1.00
2019-01-17T09:17:52.873Z,1.00
2019-01-17T09:20:21.762Z,1.00
2019-01-17T09:22:50.661Z,1.00
2019-01-17T09:25:19.546Z,1.00
2019-01-17T09:27:48.540Z,1.00
2019-01-17T09:30:20.190Z,1.00
2019-01-17T09:32:49.090Z,1.00
2019-01-17T09:35:19.329Z,1.00
2019-01-17T09:37:49.026Z,1.00
2019-01-17T09:40:20.944Z,1.00
2019-01-17T09:42:49.977Z,1.00
2019-01-17T09:45:20.259Z,1.00
2019-01-17T09:47:49.189Z,1.00
2019-01-17T09:50:20.615Z,1.00
2019-01-17T09:52:49.532Z,1.00
2019-01-17T09:55:18.525Z,1.00
2019-01-17T09:57:47.411Z,1.00
2019-01-17T10:00:19.581Z,1.00
2019-01-17T10:02:48.577Z,1.00
2019-01-17T10:05:17.464Z,1.00
2019-01-17T10:07:46.355Z,1.00
2019-01-17T10:10:18.526Z,1.00
2019-01-17T10:12:47.412Z,1.00
2019-01-17T10:15:21.832Z,1.00
2019-01-17T10:17:56.343Z,1.00
2019-01-17T10:20:44.498Z,1.00
2019-01-17T10:23:16.363Z,1.00
2019-01-17T10:26:06.036Z,1.00
2019-01-17T10:28:54.588Z,1.00
2019-01-17T10:31:49.184Z,1.00
2019-01-17T10:34:23.908Z,1.00
2019-01-17T10:37:01.401Z,1.00
2019-01-17T10:39:39.304Z,1.00
2019-01-17T10:42:23.289Z,1.00
2019-01-17T10:44:57.877Z,1.00
2019-01-17T10:47:52.774Z,54.90
2019-01-17T10:50:27.502Z,56.70
2019-01-17T10:53:15.951Z,58.50
2019-01-17T10:56:04.240Z,59.40
2019-01-17T10:58:44.863Z,61.50
2019-01-17T11:01:36.487Z,63.80
2019-01-17T11:04:11.625Z,64.50
2019-01-17T11:07:00.275Z,64.10
2019-01-17T11:09:53.538Z,66.60
2019-01-17T11:12:25.398Z,68.20
2019-01-17T11:15:19.685Z,64.70
2019-01-17T11:17:55.051Z,62.50
2019-01-17T11:20:41.938Z,59.70
2019-01-17T11:23:16.565Z,59.00
2019-01-17T11:25:57.232Z,60.40
2019-01-17T11:28:45.475Z,59.00
2019-01-17T11:31:41.198Z,59.10
2019-01-17T11:34:32.309Z,63.30
2019-01-17T11:37:28.231Z,60.90
2019-01-17T11:40:14.932Z,59.20
2019-01-17T11:42:55.353Z,56.00
2019-01-17T11:45:32.999Z,58.00
2019-01-17T11:48:13.566Z,57.90
2019-01-17T11:51:00.373Z,57.30
2019-01-17T11:53:34.894Z,60.30
2019-01-17T11:56:23.036Z,59.40
2019-01-17T11:59:10.263Z,61.20
2019-01-17T12:01:57.107Z,60.20
2019-01-17T12:04:30.976Z,62.10
2019-01-17T12:07:03.250Z,59.90
2019-01-17T12:09:32.140Z,59.10
2019-01-17T12:12:01.136Z,57.20
2019-01-17T12:14:30.026Z,54.30
2019-01-17T12:16:59.018Z,54.30
2019-01-17T12:19:28.010Z,52.90
2019-01-17T12:21:57.002Z,52.30
2019-01-17T12:24:25.891Z,51.80
2019-01-17T12:26:54.886Z,51.50
2019-01-17T12:29:24.595Z,51.80
2019-01-17T12:31:53.490Z,51.40
2019-01-17T12:34:22.482Z,51.30
2019-01-17T12:36:51.368Z,51.80
2019-01-17T12:39:20.368Z,51.40
2019-01-17T12:41:49.361Z,51.30
2019-01-17T12:44:18.248Z,52.10
2019-01-17T12:46:47.138Z,53.90
2019-01-17T12:49:16.130Z,54.90
2019-01-17T12:51:45.021Z,54.90
2019-01-17T12:54:14.014Z,55.40
2019-01-17T12:56:43.008Z,55.10
2019-01-17T12:59:11.898Z,55.30
2019-01-17T13:01:40.788Z,55.40
2019-01-17T13:04:09.781Z,55.10
2019-01-17T13:06:38.774Z,55.00
2019-01-17T13:09:08.567Z,54.70
2019-01-17T13:11:37.582Z,54.50
2019-01-17T13:14:06.675Z,54.90
2019-01-17T13:16:35.574Z,54.60
2019-01-17T13:19:06.025Z,54.00
2019-01-17T13:21:34.991Z,53.90
2019-01-17T13:24:03.877Z,54.40
2019-01-17T13:26:32.768Z,54.30
2019-01-17T13:29:01.663Z,54.00
2019-01-17T13:31:30.651Z,53.80
2019-01-17T13:33:59.643Z,53.70
2019-01-17T13:36:28.536Z,53.90
2019-01-17T13:38:57.429Z,54.10
2019-01-17T13:41:26.422Z,54.10
2019-01-17T13:43:55.317Z,54.10
2019-01-17T13:46:24.302Z,54.00
2019-01-17T13:48:53.298Z,54.00
2019-01-17T13:51:22.187Z,54.30
2019-01-17T13:53:51.704Z,54.60
2019-01-17T13:56:20.688Z,54.70
2019-01-17T13:58:49.576Z,55.10
2019-01-17T14:01:18.468Z,55.50
2019-01-17T14:03:47.352Z,55.70
2019-01-17T14:06:16.352Z,56.10
2019-01-17T14:08:45.243Z,56.40
2019-01-17T14:11:14.233Z,57.00
2019-01-17T14:13:43.158Z,57.10
2019-01-17T14:16:12.118Z,56.80
2019-01-17T14:18:41.115Z,56.90
2019-01-17T14:21:10.207Z,57.30
2019-01-17T14:23:39.105Z,57.70
2019-01-17T14:26:08.094Z,58.10
2019-01-17T14:28:36.987Z,58.40
2019-01-17T14:31:05.875Z,58.80
2019-01-17T14:33:34.865Z,59.20
2019-01-17T14:36:03.858Z,60.70
2019-01-17T14:38:32.743Z,61.40
2019-01-17T14:41:01.744Z,61.60
2019-01-17T14:43:30.735Z,62.20
2019-01-17T14:45:59.628Z,62.80
2019-01-17T14:48:28.521Z,63.30
2019-01-17T14:50:57.409Z,63.90
2019-01-17T14:53:26.418Z,64.10
2019-01-17T15:13:15.277Z,63.60
2019-01-17T15:15:44.165Z,66.60
2019-01-17T15:18:13.158Z,67.20
2019-01-17T15:20:42.048Z,67.70
2019-01-17T15:23:11.044Z,68.40
2019-01-17T15:25:40.041Z,69.20
2019-01-17T15:28:08.930Z,68.70
2019-01-17T15:30:37.815Z,68.80
2019-01-17T15:33:06.809Z,69.10
2019-01-17T15:35:35.805Z,70.20
2019-01-17T15:38:04.798Z,69.80
2019-01-17T15:40:33.792Z,70.00
2019-01-17T15:43:02.785Z,70.00
2019-01-17T15:45:31.676Z,70.70
2019-01-17T15:48:00.668Z,70.50
2019-01-17T15:50:29.587Z,70.90
2019-01-17T15:52:58.451Z,71.50
2019-01-17T15:55:27.336Z,71.60
2019-01-17T15:57:56.227Z,71.30
2019-01-17T16:00:28.398Z,71.10
2019-01-17T16:02:57.389Z,71.30
2019-01-17T16:05:26.484Z,71.10
2019-01-17T16:07:55.374Z,70.70
2019-01-17T16:10:24.370Z,70.10
2019-01-17T16:12:53.465Z,69.90
2019-01-17T16:15:24.918Z,68.20
2019-01-17T16:17:53.808Z,68.30
2019-01-17T16:20:22.700Z,68.70
2019-01-17T16:22:53.117Z,70.40
2019-01-17T16:25:22.013Z,74.60
2019-01-17T16:27:53.124Z,77.70
2019-01-17T16:30:27.476Z,80.20
2019-01-17T16:32:56.366Z,82.80
2019-01-17T16:35:25.256Z,86.80
2019-01-17T16:37:54.355Z,91.90
2019-01-17T16:40:23.345Z,92.40
2019-01-17T16:42:52.236Z,94.00
2019-01-17T16:45:24.186Z,95.30
2019-01-17T16:47:53.091Z,95.80
2019-01-17T16:50:24.673Z,96.20
2019-01-17T16:52:53.634Z,94.90
2019-01-17T16:55:22.634Z,97.30
2019-01-17T16:57:51.513Z,99.90
2019-01-17T17:00:26.824Z,98.20
2019-01-17T17:02:55.758Z,99.20
2019-01-17T17:05:24.636Z,99.90
2019-01-17T17:07:53.635Z,99.90
2019-01-17T17:10:23.247Z,99.90
2019-01-17T17:12:52.239Z,99.90
2019-01-17T17:15:21.230Z,99.90
2019-01-17T17:17:50.227Z,99.90
2019-01-17T17:20:22.287Z,99.90
2019-01-17T17:22:51.173Z,99.90
2019-01-17T17:25:20.072Z,99.90
2019-01-17T17:27:55.305Z,99.90
2019-01-17T17:30:25.224Z,99.90
2019-01-17T17:32:54.114Z,99.90
2019-01-17T17:35:23.006Z,99.90
2019-01-17T17:37:51.966Z,99.90
2019-01-17T17:40:23.722Z,99.90
2019-01-17T17:42:52.653Z,99.90
2019-01-17T17:45:21.844Z,99.90
2019-01-17T17:47:50.841Z,99.90
2019-01-17T17:50:21.898Z,99.90
2019-01-17T17:52:50.916Z,99.90
2019-01-17T17:55:20.367Z,99.90
2019-01-17T17:57:50.575Z,99.90
2019-01-17T18:00:45.549Z,99.90
2019-01-17T20:20:14.004Z,99.90
2019-01-17T20:22:42.938Z,99.90
